Weather observations for the past three days for
Manassas, Manassas Regional Airport/Harry P. Davis Field
Imperial (Metric)
Date Time (edt) Wind (mph) Vis. (mi.) Weather Sky Cond. Temperature (ºF) Relative Humidity Wind Chill (°F) Heat Index (°F) Pressure Precipitation (in)
Air Dwpt 6 hour altimeter (in) sea level (mb) 1 hr 3 hr 6 hr
Max. Min.
09 14:56 SW 12 10.00 Fair CLR 71.1 52 51% 29.8 1009.6
09 13:56 SW 13 G 16 10.00 Overcast SCT048 OVC070 71.1 52 72 57.9 51% 29.83 1010.4
09 12:56 S 14 G 18 10.00 Overcast FEW049 OVC070 72 52 50% 29.83 1010.7
09 11:56 SW 10 10.00 Overcast OVC090 69.1 51.1 53% 29.84 1011.0
09 10:56 SW 9 10.00 Fair CLR 66.9 48.9 53% 29.86 1011.5
09 09:56 Vrbl 6 10.00 Overcast OVC090 62.1 48 60% 29.88 1012.2
09 08:56 S 8 10.00 Overcast OVC090 59 45 60% 29.88 1012.2
09 07:56 S 6 10.00 Mostly Cloudy BKN120 57.9 43 57.9 51.1 58% 29.88 1012.4
09 06:56 S 5 10.00 Partly Cloudy SCT120 55.9 43 62% 29.87 1012.0
09 05:56 S 3 10.00 Mostly Cloudy BKN110 55.9 42.1 60% 29.86 1011.7
09 04:56 S 5 10.00 Overcast OVC120 55.9 42.1 60% 29.88 1012.2
09 03:56 S 9 10.00 Overcast OVC120 55.9 41 57% 29.89 1012.5
09 02:56 S 6 10.00 Partly Cloudy SCT120 53.1 43 69% 29.89 1012.5
09 01:56 S 5 10.00 Fair CLR 51.1 41 64 50 69% 29.9 1013.0
09 00:56 S 5 10.00 Fair CLR 55 39 55% 29.9 1013.0
08 23:56 S 6 10.00 Fair CLR 57.9 39.9 51% 29.9 1013.0
08 22:56 S 5 10.00 Fair CLR 55 41 59% 29.91 1013.4
08 21:56 S 5 10.00 Fair CLR 55 42.1 62% 29.9 1013.1
08 20:56 S 3 10.00 Fair CLR 59 42.1 54% 29.9 1012.9
08 19:56 S 5 10.00 Overcast OVC110 64 42.1 73 64 45% 29.88 1012.4
08 18:56 S 8 10.00 Overcast OVC100 68 39.9 36% 29.87 1012.1
08 17:56 S 9 10.00 Overcast OVC095 71.1 37.9 30% 29.87 1012.0
08 16:56 SW 9 10.00 A Few Clouds FEW100 70 36 29% 29.87 1012.2
08 15:56 SW 7 G 16 10.00 A Few Clouds FEW090 73 37 27% 29.89 1012.6
08 14:56 S 15 G 21 10.00 Partly Cloudy SCT080 72 39 30% 29.91 1013.5
08 13:56 SW 9 G 17 10.00 Fair CLR 71.1 37.9 71.1 48 30% 29.94 1014.3
08 12:56 Calm 10.00 A Few Clouds FEW075 66.9 37 33% 29.96 1015.0
08 11:56 S 5 10.00 Fair CLR 66 36 33% 29.99 1015.9
08 10:56 W 9 10.00 Fair CLR 64.9 36 34% 30 1016.4
08 09:56 Vrbl 3 10.00 Fair CLR 62.1 35.1 37% 30.01 1016.7
08 08:56 S 3 10.00 Fair CLR 55.9 42.1 60% 30.02 1017.2
08 07:56 Calm 10.00 Fair CLR 48 42.1 48.9 36 80% 30.02 1017.1
08 06:56 S 5 10.00 Fair CLR 39 39 100% 36 29.99 1016.2
08 05:56 Calm 10.00 Fair CLR 37 36 96% 29.97 1015.5
08 04:56 Calm 10.00 Fair CLR 37.9 37 97% 29.97 1015.4
08 03:56 NW 6 10.00 Fair CLR 48 36 63% 46 29.95 1014.7
08 02:56 Calm 10.00 Fair CLR 41 39.9 96% 29.93 1014.1
08 01:56 S 3 10.00 Fair CLR 41 39.9 55.9 41 96% 29.92 1013.6
08 00:56 Calm 10.00 Fair CLR 45 44.1 97% 29.91 1013.6
07 23:56 Calm 10.00 Fair CLR 46 44.1 93% 29.89 1012.8
07 22:56 Calm 10.00 Fair CLR 46.9 45 93% 29.88 1012.6
07 21:56 Calm 10.00 Fair CLR 50 45 83% 29.88 1012.3
07 20:56 S 3 10.00 Fair CLR 53.1 45 74% 29.86 1011.7
07 19:56 S 6 10.00 Fair CLR 55.9 45 63 55.9 67% 29.84 1010.9
07 18:56 S 10 10.00 Fair CLR 60.1 44.1 56% 29.81 1010.1
07 17:56 S 12 10.00 Fair CLR 62.1 45 54% 29.8 1009.6
07 16:56 S 6 10.00 Fair CLR 63 43 48% 29.8 1009.7
07 15:56 S 9 10.00 Fair CLR 61 43 52% 29.82 1010.1
07 14:56 S 10 10.00 Partly Cloudy SCT095 59 42.1 54% 29.84 1010.9
07 13:56 S 6 10.00 Partly Cloudy SCT085 60.1 39.9 61 54 48% 29.85 1011.4
07 12:56 Vrbl 3 10.00 Light Rain FEW025 BKN075 57.9 37 46% 29.88 1012.5
07 11:56 Vrbl 3 10.00 Overcast OVC070 57 36 45% 29.9 1013.0
07 10:56 N 7 10.00 Overcast OVC060 55.9 37.9 51% 29.91 1013.4
07 09:56 NW 8 10.00 Overcast OVC055 55 37 51% 29.93 1013.9
07 08:56 N 10 10.00 Overcast OVC050 55 37.9 53% 29.93 1013.9
07 07:56 N 9 10.00 Overcast OVC048 55.9 46 57 55 70% 29.92 1013.6
07 06:56 N 8 10.00 Overcast OVC044 55.9 46.9 72% 29.9 1013.1
07 05:56 N 9 10.00 Overcast OVC044 55.9 46.9 72% 29.89 1012.7
07 04:56 N 8 10.00 Overcast OVC040 55 48.9 80% 29.88 1012.3
07 03:56 N 7 10.00 Overcast OVC038 55.9 50 81% 29.87 1011.9
07 02:56 N 9 10.00 Light Rain OVC036 55.9 53.1 90% 29.86 1011.8
07 01:56 N 13 10.00 Light Rain FEW022 BKN029 OVC034 57 53.1 70 55.9 87% 29.86 1011.5 0.04 0.17
07 00:56 N 9 10.00 Rain FEW040 BKN050 OVC100 57 54 90% 29.86 1011.8 0.11
06 23:56 NE 12 10.00 Thunderstorm Light Rain FEW022 OVC030 60.1 55 84% 29.84 1011.0 0.02
06 22:56 N 8 10.00 Overcast OVC028 64.9 57 76% 29.83 1010.6
06 21:56 NW 8 10.00 Light Rain FEW017 OVC024 64.9 60.1 84% 29.81 1009.9
06 20:56 W 3 10.00 Overcast OVC028 69.1 62.1 78% 29.82 1010.2
06 19:56 Vrbl 3 10.00 Mostly Cloudy BKN060 BKN070 70 62.1 71.1 66 76% 29.8 1009.4
06 18:56 S 5 10.00 Overcast OVC060 70 61 73% 29.77 1008.6
06 17:56 SW 10 10.00 Mostly Cloudy BKN060 70 61 73% 29.78 1008.8
06 16:56 SW 9 10.00 Partly Cloudy SCT022 70 61 73% 29.77 1008.6
06 15:56 SW 12 10.00 Overcast SCT020 OVC075 69.1 61 76% 29.77 1008.5
Date Time (edt) Wind (mph) Vis. (mi.) Weather Sky Cond. Air Dwpt Max. Min. Relative Humidity Wind Chill (°F) Heat Index (°F) altimeter (in) sea level (mb) 1 hr 3 hr 6 hr
6 hour
Temperature (ºF) Pressure Precipitation (in)